Time;durP1;ratioP1;P1;durP2;ratioP2;P2;SDS_P1;SDS_P2;PMS_P1;PMS_P2;Temp;Humidity;BMP_temperature;BMP_pressure;BME280_temperature;BME280_humidity;BME280_pressure;Samples;Min_cycle;Max_cycle;Signal;HPM_P1;HPM_P2
2023/05/27 00:01:24;;;;;;;8.80;5.95;;;;;;;18.34;100.00;100657.72;5547232;32;33670;-69
2023/05/27 00:04:34;;;;;;;10.57;5.97;;;;;;;18.36;100.00;100664.50;5546383;32;34067;-69
2023/05/27 00:07:39;;;;;;;9.68;6.28;;;;;;;18.28;100.00;100661.25;5547149;32;33814;-69
2023/05/27 00:10:48;;;;;;;12.07;5.93;;;;;;;18.23;100.00;100661.88;5546973;32;34093;-69
2023/05/27 00:13:55;;;;;;;9.13;6.05;;;;;;;18.23;100.00;100661.88;5547077;32;34084;-69
2023/05/27 00:17:05;;;;;;;8.20;6.03;;;;;;;18.26;100.00;100658.75;5546922;32;34855;-69
2023/05/27 00:20:15;;;;;;;11.07;6.15;;;;;;;18.23;100.00;100660.00;5546926;32;34115;-69
2023/05/27 00:23:23;;;;;;;11.52;6.60;;;;;;;18.24;100.00;100655.47;5546848;32;33824;-69
2023/05/27 00:26:30;;;;;;;10.40;6.35;;;;;;;18.20;100.00;100662.31;5546002;32;34480;-69
2023/05/27 00:29:37;;;;;;;11.60;6.80;;;;;;;18.14;100.00;100663.13;5546745;32;34057;-69
2023/05/27 00:32:44;;;;;;;11.35;6.32;;;;;;;18.12;100.00;100657.97;5546558;32;34843;-69
2023/05/27 00:35:52;;;;;;;11.05;6.70;;;;;;;18.07;100.00;100648.88;5547857;32;34701;-69
2023/05/27 00:38:58;;;;;;;13.85;6.85;;;;;;;18.03;100.00;100644.97;5549121;32;34040;-69
2023/05/27 00:42:07;;;;;;;9.20;6.70;;;;;;;18.03;100.00;100650.34;5549270;32;33886;-69
2023/05/27 00:45:15;;;;;;;9.43;6.90;;;;;;;18.07;100.00;100655.09;5549097;32;33930;-70
2023/05/27 00:48:23;;;;;;;10.55;6.72;;;;;;;18.02;100.00;100648.69;5549149;32;34024;-69
2023/05/27 00:51:29;;;;;;;8.63;6.53;;;;;;;18.04;100.00;100658.19;5549008;32;33924;-69
2023/05/27 00:54:37;;;;;;;9.20;6.93;;;;;;;18.05;100.00;100650.97;5548802;32;34145;-70
2023/05/27 00:57:44;;;;;;;10.27;6.65;;;;;;;17.98;100.00;100652.84;5548297;32;33780;-69
2023/05/27 01:00:53;;;;;;;9.18;6.97;;;;;;;17.95;100.00;100653.25;5549062;32;34208;-69
2023/05/27 01:04:01;;;;;;;11.15;7.07;;;;;;;17.96;100.00;100655.72;5549178;32;34043;-69
2023/05/27 01:07:17;;;;;;;12.80;7.62;;;;;;;17.94;100.00;100659.66;5548921;32;35138;-69
2023/05/27 01:10:55;;;;;;;8.70;6.90;;;;;;;17.95;100.00;100662.16;5548889;32;34269;-69
2023/05/27 01:14:06;;;;;;;11.00;6.77;;;;;;;18.01;100.00;100655.13;5547070;32;33891;-69
2023/05/27 01:17:16;;;;;;;8.70;6.72;;;;;;;18.03;100.00;100656.53;5548921;32;32907;-69
2023/05/27 01:20:23;;;;;;;;;;;;;;;18.02;100.00;100649.50;5549251;32;34049;-70
2023/05/27 01:23:29;;;;;;;13.88;7.40;;;;;;;18.02;100.00;100648.69;5548934;32;34336;-69
2023/05/27 01:26:35;;;;;;;10.95;7.32;;;;;;;17.98;100.00;100644.78;5548775;32;34077;-69
2023/05/27 01:29:41;;;;;;;9.45;7.07;;;;;;;17.95;100.00;100639.84;5548750;32;34184;-68
2023/05/27 01:32:58;;;;;;;11.75;7.55;;;;;;;17.95;100.00;100642.53;5547822;32;33914;-69
2023/05/27 01:36:14;;;;;;;12.82;6.80;;;;;;;17.91;100.00;100644.78;5549086;32;34597;-69
2023/05/27 01:39:20;;;;;;;10.55;7.55;;;;;;;17.88;100.00;100639.00;5548682;32;33766;-69
2023/05/27 01:42:27;;;;;;;11.07;7.20;;;;;;;17.82;100.00;100648.72;5548615;32;33995;-69
2023/05/27 01:45:35;;;;;;;11.07;7.50;;;;;;;17.75;100.00;100653.28;5548652;32;34028;-69
2023/05/27 01:48:46;;;;;;;9.93;7.35;;;;;;;17.66;100.00;100646.47;5547701;32;34112;-70
2023/05/27 01:51:52;;;;;;;12.40;7.80;;;;;;;17.62;100.00;100642.56;5548410;32;34042;-69
2023/05/27 01:54:58;;;;;;;8.70;7.30;;;;;;;17.52;100.00;100642.94;5548255;32;34044;-70
2023/05/27 01:58:07;;;;;;;10.38;7.82;;;;;;;17.52;100.00;100642.12;5548395;32;34050;-69
2023/05/27 02:01:13;;;;;;;12.45;7.32;;;;;;;17.49;100.00;100642.50;5548547;32;34103;-69
2023/05/27 02:04:23;;;;;;;10.40;7.60;;;;;;;17.52;100.00;100642.12;5548402;32;34255;-69
2023/05/27 02:07:32;;;;;;;10.00;7.83;;;;;;;17.46;100.00;100634.88;5548469;32;34744;-69
2023/05/27 02:10:40;;;;;;;13.05;7.53;;;;;;;17.49;100.00;100642.50;5548463;32;34099;-69
2023/05/27 02:13:49;;;;;;;12.60;8.03;;;;;;;17.51;100.00;100632.41;5548469;32;34030;-69
2023/05/27 02:16:58;;;;;;;13.95;8.18;;;;;;;17.50;100.00;100639.63;5547494;32;34832;-69
2023/05/27 02:20:06;;;;;;;11.30;7.87;;;;;;;17.49;100.00;100637.97;5548311;32;34547;-69
2023/05/27 02:23:13;;;;;;;12.60;7.97;;;;;;;17.41;100.00;100632.00;5548421;32;34503;-69
2023/05/27 02:26:21;;;;;;;10.63;8.15;;;;;;;17.33;100.00;100639.19;5548399;32;34147;-70
2023/05/27 02:29:29;;;;;;;9.75;8.10;;;;;;;17.32;100.00;100639.44;5548306;32;34120;-69
2023/05/27 02:32:36;;;;;;;12.63;8.18;;;;;;;17.27;100.00;100633.84;5548230;32;34039;-70
2023/05/27 02:35:45;;;;;;;11.77;8.00;;;;;;;17.20;100.00;100641.06;5548268;32;34092;-69
2023/05/27 02:38:52;;;;;;;11.18;8.38;;;;;;;17.25;100.00;100646.63;5548339;32;34562;-70
2023/05/27 02:41:59;;;;;;;16.52;7.97;;;;;;;17.22;100.00;100649.72;5548217;32;34794;-69
2023/05/27 02:45:09;;;;;;;12.55;7.93;;;;;;;17.21;100.00;100642.72;5548171;32;34377;-69
2023/05/27 02:48:20;;;;;;;13.43;8.10;;;;;;;17.15;100.00;100641.66;5548145;32;34102;-69
2023/05/27 02:51:28;;;;;;;12.27;8.65;;;;;;;17.29;100.00;100647.88;5548030;32;35326;-69
2023/05/27 02:54:36;;;;;;;14.85;8.00;;;;;;;17.26;100.00;100648.28;5541346;32;34879;-70
2023/05/27 02:57:42;;;;;;;11.15;7.45;;;;;;;17.16;100.00;100643.31;5547237;32;34697;-70
2023/05/27 03:00:47;;;;;;;10.73;8.07;;;;;;;17.13;100.00;100645.59;5547104;32;33914;-70
2023/05/27 03:03:53;;;;;;;13.88;7.75;;;;;;;17.11;100.00;100648.47;5548010;32;34161;-69
2023/05/27 03:07:02;;;;;;;13.90;8.30;;;;;;;17.15;100.00;100643.53;5547897;32;34044;-69
2023/05/27 03:10:09;;;;;;;10.20;7.70;;;;;;;17.19;100.00;100645.59;5547853;32;34126;-69
2023/05/27 03:13:15;;;;;;;10.43;7.90;;;;;;;17.22;100.00;100650.56;5546883;32;34499;-69
2023/05/27 03:16:22;;;;;;;11.43;7.93;;;;;;;17.30;100.00;100657.56;5547792;32;34337;-69
2023/05/27 03:19:30;;;;;;;14.27;7.57;;;;;;;17.30;100.00;100652.22;5547684;32;34172;-69
2023/05/27 03:22:36;;;;;;;14.73;8.27;;;;;;;17.35;100.00;100655.94;5547705;32;34921;-69
2023/05/27 03:25:44;;;;;;;13.15;7.35;;;;;;;17.47;100.00;100658.84;5547647;32;34092;-70
2023/05/27 03:28:52;;;;;;;13.88;7.60;;;;;;;17.52;100.00;100655.53;5547748;32;34119;-69
2023/05/27 03:31:59;;;;;;;12.45;7.75;;;;;;;17.50;100.00;100661.09;5547710;32;34040;-69
2023/05/27 03:35:10;;;;;;;9.77;7.80;;;;;;;17.54;100.00;100662.31;5547585;32;34118;-69
2023/05/27 03:38:20;;;;;;;14.02;8.15;;;;;;;17.57;100.00;100669.16;5547571;32;34381;-69
2023/05/27 03:41:27;;;;;;;13.57;7.57;;;;;;;17.56;100.00;100662.12;5547598;32;33961;-69
2023/05/27 03:44:36;;;;;;;11.07;7.10;;;;;;;17.50;100.00;100669.16;5547461;32;34042;-69
2023/05/27 03:47:46;;;;;;;11.68;7.47;;;;;;;17.50;100.00;100665.62;5547518;32;33862;-69
2023/05/27 03:50:53;;;;;;;12.13;7.37;;;;;;;17.50;100.00;100665.62;5547351;32;34098;-69
2023/05/27 03:54:00;;;;;;;10.50;7.53;;;;;;;17.49;100.00;100672.84;5546681;32;33808;-69
2023/05/27 03:57:07;;;;;;;14.40;7.78;;;;;;;17.54;100.00;100666.88;5547119;32;34184;-69
2023/05/27 04:00:17;;;;;;;12.60;7.72;;;;;;;17.53;100.00;100665.22;5547112;32;34128;-69
2023/05/27 04:03:25;;;;;;;12.63;7.87;;;;;;;17.47;100.00;100666.06;5547094;32;34725;-69
2023/05/27 04:06:33;;;;;;;14.50;7.75;;;;;;;17.45;100.00;100668.09;5546992;32;34127;-70
2023/05/27 04:09:38;;;;;;;12.50;7.40;;;;;;;17.37;100.00;100669.16;5548049;32;34097;-70
2023/05/27 04:12:47;;;;;;;16.60;7.72;;;;;;;17.34;100.00;100665.00;5553507;32;33986;-69
2023/05/27 04:15:53;;;;;;;12.90;7.62;;;;;;;17.32;100.00;100656.34;5552657;32;33907;-69
2023/05/27 04:19:01;;;;;;;12.60;7.70;;;;;;;17.30;100.00;100669.12;5553454;32;34019;-70
2023/05/27 04:22:07;;;;;;;13.57;8.10;;;;;;;17.32;100.00;100672.44;5553455;32;34284;-69
2023/05/27 04:25:16;;;;;;;11.40;7.00;;;;;;;17.37;100.00;100678.00;5553382;32;33893;-70
2023/05/27 04:28:24;;;;;;;13.32;7.45;;;;;;;17.42;100.00;100672.03;5553215;32;33997;-69
2023/05/27 04:31:31;;;;;;;12.95;7.00;;;;;;;17.45;100.00;100673.47;5552300;32;34111;-70
2023/05/27 04:34:43;;;;;;;12.63;7.13;;;;;;;17.52;100.00;100680.50;5553127;32;34184;-69
2023/05/27 04:37:50;;;;;;;12.13;7.00;;;;;;;17.63;100.00;100676.38;5553220;32;34109;-69
2023/05/27 04:40:57;;;;;;;13.43;6.60;;;;;;;17.71;100.00;100685.09;5553006;32;34123;-70
2023/05/27 04:44:06;;;;;;;14.65;6.93;;;;;;;17.82;100.00;100678.25;5552886;32;34033;-69
2023/05/27 04:47:13;;;;;;;15.18;6.70;;;;;;;17.93;100.00;100687.53;5552003;32;34570;-70
2023/05/27 04:50:20;;;;;;;10.95;6.72;;;;;;;17.96;100.00;100695.97;5552810;32;34037;-69
2023/05/27 04:53:26;;;;;;;11.48;6.60;;;;;;;18.02;100.00;100699.69;5552322;32;33947;-70
2023/05/27 04:56:35;;;;;;;15.05;6.57;;;;;;;18.12;100.00;100692.88;5546952;32;34167;-69
2023/05/27 05:03:07;;;;;;;13.68;6.87;;;;;;;18.16;100.00;100688.72;5552420;32;34785;-70
2023/05/27 05:06:13;;;;;;;13.85;6.37;;;;;;;18.19;100.00;100693.69;5551347;32;34175;-69
2023/05/27 05:09:21;;;;;;;13.52;6.50;;;;;;;18.20;100.00;100692.62;5552265;32;34706;-69
2023/05/27 05:12:27;;;;;;;10.52;6.12;;;;;;;18.39;100.00;100692.81;5552365;32;35089;-70
2023/05/27 05:15:37;;;;;;;10.02;6.68;;;;;;;18.36;100.00;100701.28;5552163;32;34326;-69
2023/05/27 05:18:42;;;;;;;13.45;5.90;;;;;;;18.27;100.00;100706.06;5549962;32;33910;-69
2023/05/27 05:21:49;;;;;;;13.02;6.60;;;;;;;18.33;100.00;100707.91;5541916;32;34156;-69
2023/05/27 05:24:55;;;;;;;10.38;6.03;;;;;;;18.50;100.00;100710.97;5531410;32;34057;-69
2023/05/27 05:28:02;;;;;;;10.73;5.80;;;;;;;18.69;100.00;100712.00;5529308;32;34176;-70
2023/05/27 05:31:09;;;;;;;11.82;5.82;;;;;;;18.70;100.00;100714.44;5528867;32;34247;-70
2023/05/27 05:34:18;;;;;;;12.40;5.87;;;;;;;18.56;99.47;100721.72;5544029;32;34328;-70
2023/05/27 05:37:24;;;;;;;13.75;5.85;;;;;;;18.63;97.14;100717.16;5548465;32;34420;-71
2023/05/27 05:40:30;;;;;;;10.90;5.57;;;;;;;18.72;96.55;100719.63;5548370;32;34185;-69
2023/05/27 05:43:40;;;;;;;10.32;6.10;;;;;;;18.73;95.58;100721.28;5548496;32;34883;-71
2023/05/27 05:46:49;;;;;;;9.05;5.20;;;;;;;19.24;89.87;100726.59;5548130;32;34086;-70
2023/05/27 05:49:56;;;;;;;14.13;5.25;;;;;;;19.35;88.96;100723.22;5547127;32;34044;-70
2023/05/27 05:53:03;;;;;;;11.10;5.15;;;;;;;19.38;86.54;100729.00;5547285;32;33893;-69
2023/05/27 05:56:10;;;;;;;7.85;5.00;;;;;;;19.29;86.37;100729.47;5547828;32;34012;-70
2023/05/27 05:59:16;;;;;;;11.50;5.30;;;;;;;19.23;87.70;100728.47;5548207;32;33546;-70
2023/05/27 06:02:25;;;;;;;15.55;5.57;;;;;;;19.49;85.46;100733.72;5548328;32;34776;-70
2023/05/27 06:05:34;;;;;;;17.77;5.10;;;;;;;19.81;83.22;100736.38;5547906;32;33911;-69
2023/05/27 06:08:43;;;;;;;17.83;5.22;;;;;;;19.32;79.20;100745.16;5548334;32;33985;-69
2023/05/27 06:11:49;;;;;;;12.18;4.80;;;;;;;19.37;80.94;100748.84;5548522;32;34074;-69
2023/05/27 06:14:54;;;;;;;10.80;4.95;;;;;;;19.73;77.51;100752.81;5548094;32;34660;-69
2023/05/27 06:18:00;;;;;;;13.00;5.37;;;;;;;19.38;78.09;100758.59;5548120;32;34717;-69
2023/05/27 06:21:05;;;;;;;10.18;4.82;;;;;;;19.93;76.26;100758.87;5547603;32;34267;-68
2023/05/27 06:24:13;;;;;;;9.45;4.80;;;;;;;19.67;74.64;100769.81;5548279;32;34276;-70
2023/05/27 06:27:20;;;;;;;9.73;4.43;;;;;;;19.87;73.30;100776.72;5547253;32;34601;-69
2023/05/27 06:30:29;;;;;;;7.87;4.35;;;;;;;20.03;70.24;100763.75;5548101;32;34203;-68
2023/05/27 06:33:36;;;;;;;9.07;4.47;;;;;;;19.67;69.59;100762.56;5547350;32;34035;-68
2023/05/27 06:36:44;;;;;;;13.13;4.57;;;;;;;19.77;70.82;100770.16;5548236;32;34143;-70
2023/05/27 06:39:51;;;;;;;8.23;4.87;;;;;;;19.97;69.00;100757.38;5548136;32;34186;-69
2023/05/27 06:42:59;;;;;;;8.95;4.60;;;;;;;20.24;69.48;100766.03;5547210;32;35136;-68
2023/05/27 06:46:06;;;;;;;9.57;4.78;;;;;;;20.00;68.42;100761.47;5547981;32;33965;-69
2023/05/27 06:49:14;;;;;;;10.45;4.62;;;;;;;19.82;69.91;100767.66;5547964;32;34756;-69
2023/05/27 06:52:20;;;;;;;16.27;5.15;;;;;;;20.14;69.89;100774.62;5547902;32;34643;-69
2023/05/27 06:55:31;;;;;;;10.35;4.90;;;;;;;20.13;68.97;100774.88;5547701;32;36014;-69
2023/05/27 06:58:41;;;;;;;9.70;4.62;;;;;;;20.64;68.44;100782.69;5547994;32;34041;-68
2023/05/27 07:01:47;;;;;;;9.73;4.68;;;;;;;20.68;66.36;100791.97;5547875;32;34885;-69
2023/05/27 07:04:54;;;;;;;9.38;4.37;;;;;;;20.79;67.37;100794.75;5536263;32;34460;-69
2023/05/27 07:08:04;;;;;;;11.18;4.95;;;;;;;21.07;67.09;100787.97;5528145;32;34617;-70
2023/05/27 07:11:12;;;;;;;11.63;4.57;;;;;;;21.11;65.45;100795.41;5528150;32;34831;-72
2023/05/27 07:14:18;;;;;;;7.60;4.20;;;;;;;21.34;63.39;100791.22;5539673;32;34062;-71
2023/05/27 07:17:24;;;;;;;13.32;4.65;;;;;;;21.59;62.34;100789.22;5528199;32;34718;-69
2023/05/27 07:20:32;;;;;;;8.90;4.22;;;;;;;21.15;62.65;100787.72;5528338;32;34856;-67
2023/05/27 07:23:39;;;;;;;9.20;3.62;;;;;;;21.25;61.53;100782.63;5528360;32;34041;-69
2023/05/27 07:26:48;;;;;;;9.75;4.00;;;;;;;22.12;57.70;100780.31;5528338;32;34620;-69
2023/05/27 07:29:56;;;;;;;10.63;4.47;;;;;;;22.05;56.62;100778.53;5539682;32;34229;-70
2023/05/27 07:33:05;;;;;;;11.23;4.35;;;;;;;22.73;54.07;100788.78;5528149;32;34085;-70
2023/05/27 07:36:16;;;;;;;12.93;3.65;;;;;;;23.85;51.78;100790.97;5528137;32;34052;-70
2023/05/27 07:39:24;;;;;;;7.47;3.35;;;;;;;23.85;51.88;100783.66;5528121;32;34064;-69
2023/05/27 07:42:30;;;;;;;11.38;3.47;;;;;;;23.32;49.91;100789.44;5555845;32;33970;-70
2023/05/27 07:45:38;;;;;;;;;;;;;;;23.48;49.80;100793.31;5566014;32;34710;-69
2023/05/27 07:48:47;;;;;;;16.37;3.60;;;;;;;24.21;47.58;100783.19;5566875;32;34494;-70
2023/05/27 07:51:54;;;;;;;15.20;4.00;;;;;;;23.60;48.94;100784.03;5566767;32;34720;-70
2023/05/27 07:55:01;;;;;;;10.43;3.87;;;;;;;24.19;47.44;100776.41;5566490;32;35115;-70
2023/05/27 07:58:09;;;;;;;10.68;4.37;;;;;;;24.64;47.22;100782.47;5566737;32;34182;-71
2023/05/27 08:01:16;;;;;;;10.40;3.90;;;;;;;24.39;46.96;100775.87;5555356;32;33823;-69
2023/05/27 08:04:24;;;;;;;11.57;3.75;;;;;;;23.83;47.76;100785.78;5546743;32;34813;-71
2023/05/27 08:07:32;;;;;;;9.93;4.00;;;;;;;24.97;44.10;100772.63;5547094;32;34103;-70
2023/05/27 08:10:44;;;;;;;12.30;3.28;;;;;;;25.03;44.66;100768.87;5544815;32;35050;-71
2023/05/27 08:13:51;;;;;;;8.35;3.65;;;;;;;26.18;41.69;100768.41;5545049;32;33951;-70
2023/05/27 08:17:02;;;;;;;5.50;3.40;;;;;;;24.60;44.99;100765.06;5534043;32;34808;-69
2023/05/27 08:20:08;;;;;;;17.10;7.15;;;;;;;24.23;46.13;100761.25;5546331;32;34194;-70
2023/05/27 08:23:18;;;;;;;;;;;;;;;25.15;45.69;100760.59;5545569;32;34265;-70
2023/05/27 08:26:26;;;;;;;10.60;3.78;;;;;;;26.93;41.25;100753.62;5546865;32;34560;-71
2023/05/27 08:29:34;;;;;;;9.98;5.10;;;;;;;25.98;42.61;100749.22;5544862;32;34088;-70
2023/05/27 08:32:46;;;;;;;12.37;3.67;;;;;;;25.75;44.08;100758.56;5528077;32;34187;-71
2023/05/27 08:35:56;;;;;;;8.95;3.25;;;;;;;26.64;42.19;100761.34;5519618;32;34748;-72
2023/05/27 08:39:04;;;;;;;6.55;3.33;;;;;;;27.30;40.47;100750.75;5526251;32;34070;-70
2023/05/27 08:42:10;;;;;;;12.20;3.85;;;;;;;27.27;41.45;100755.91;5525462;32;34068;-72
2023/05/27 08:45:17;;;;;;;9.45;3.30;;;;;;;27.79;38.26;100758.47;5527165;32;34096;-71
2023/05/27 08:48:24;;;;;;;11.57;3.60;;;;;;;28.25;37.80;100762.84;5527012;32;35642;-69
2023/05/27 08:51:30;;;;;;;12.70;3.95;;;;;;;27.32;38.71;100747.75;5528730;32;34763;-71
2023/05/27 08:54:38;;;;;;;7.93;3.70;;;;;;;27.78;38.18;100752.22;5528180;32;34669;-70
2023/05/27 08:57:51;;;;;;;11.00;3.70;;;;;;;26.24;41.29;100750.22;5547768;32;34153;-71
2023/05/27 09:01:01;;;;;;;9.60;3.85;;;;;;;28.29;38.64;100746.72;5529868;32;34097;-70
2023/05/27 09:04:09;;;;;;;13.65;3.87;;;;;;;27.60;39.06;100750.81;5548714;32;34108;-70
2023/05/27 09:07:20;;;;;;;9.13;3.65;;;;;;;27.82;38.53;100753.28;5547274;32;33896;-71
2023/05/27 09:10:40;;;;;;;14.38;3.87;;;;;;;28.14;37.86;100755.75;5548478;32;34152;-71
2023/05/27 09:13:48;;;;;;;13.13;3.70;;;;;;;27.37;38.45;100755.94;5548787;32;34050;-71
2023/05/27 09:16:55;;;;;;;10.07;3.55;;;;;;;26.91;39.28;100750.38;5548667;32;34807;-70
2023/05/27 09:20:07;;;;;;;12.80;3.58;;;;;;;26.23;39.85;100751.34;5548554;32;34141;-70
2023/05/27 09:23:13;;;;;;;7.28;3.60;;;;;;;27.43;38.78;100752.13;5548617;32;34520;-71
2023/05/27 09:26:18;;;;;;;6.25;3.50;;;;;;;26.77;39.73;100749.19;5547821;32;34082;-70
2023/05/27 09:29:26;;;;;;;6.80;3.60;;;;;;;27.08;39.97;100753.69;5539013;32;34582;-70
2023/05/27 09:32:32;;;;;;;20.17;3.97;;;;;;;27.99;36.94;100742.91;5548534;32;33916;-71
2023/05/27 09:35:40;;;;;;;9.80;3.83;;;;;;;27.06;38.26;100738.72;5528981;32;34812;-71
2023/05/27 09:38:48;;;;;;;8.43;3.90;;;;;;;27.42;38.78;100747.75;5529003;32;34848;-71
2023/05/27 09:41:55;;;;;;;10.05;3.78;;;;;;;26.60;39.53;100748.53;5528956;32;34139;-69
2023/05/27 09:45:05;;;;;;;7.82;3.65;;;;;;;26.07;40.70;100746.81;5546621;32;33502;-70
2023/05/27 09:48:18;;;;;;;10.68;4.20;;;;;;;25.88;40.10;100739.09;5548240;32;34029;-69
2023/05/27 09:51:29;;;;;;;9.05;4.22;;;;;;;24.66;41.68;100745.06;5548368;32;33911;-71
2023/05/27 09:54:35;;;;;;;7.72;3.83;;;;;;;24.18;43.22;100736.78;5541636;32;34049;-69
2023/05/27 09:57:44;;;;;;;;;;;;;;;26.64;39.92;100727.88;5543677;32;33887;-71
2023/05/27 10:00:52;;;;;;;9.50;3.95;;;;;;;29.03;35.22;100727.66;5537611;32;34492;-70
2023/05/27 10:04:00;;;;;;;6.05;3.62;;;;;;;32.45;31.38;100733.94;5532797;32;34020;-71
2023/05/27 10:07:08;;;;;;;10.20;5.00;;;;;;;31.58;31.77;100722.84;5532689;32;34585;-71
2023/05/27 10:10:20;;;;;;;8.15;3.53;;;;;;;31.81;30.29;100719.16;5531482;32;33888;-71
2023/05/27 10:13:27;;;;;;;11.65;4.25;;;;;;;30.54;32.10;100730.28;5536852;32;33783;-73
2023/05/27 10:16:36;;;;;;;9.80;3.92;;;;;;;29.46;34.76;100726.03;5536800;32;34397;-68
2023/05/27 10:19:56;;;;;;;6.07;3.55;;;;;;;31.52;30.72;100724.81;5537175;32;33903;-70
2023/05/27 10:23:21;;;;;;;6.28;3.53;;;;;;;30.69;31.47;100718.34;5539128;32;34154;-70
2023/05/27 10:26:35;;;;;;;5.53;3.30;;;;;;;30.35;32.51;100719.25;5530159;32;34149;-69
2023/05/27 10:29:43;;;;;;;7.87;4.10;;;;;;;34.07;28.63;100715.69;5529011;32;34205;-70
2023/05/27 10:32:49;;;;;;;13.50;4.00;;;;;;;31.34;31.33;100714.69;5529017;32;34095;-71
2023/05/27 10:35:56;;;;;;;6.80;3.45;;;;;;;31.16;32.31;100712.78;5530235;32;34042;-69
2023/05/27 10:39:06;;;;;;;9.82;3.80;;;;;;;31.51;30.64;100716.91;5547133;32;34855;-69
2023/05/27 10:42:21;;;;;;;9.05;4.22;;;;;;;30.55;30.99;100715.47;5547770;32;33952;-69
2023/05/27 10:45:34;;;;;;;9.48;3.90;;;;;;;31.70;30.24;100714.16;5544420;32;33908;-69
2023/05/27 10:48:46;;;;;;;9.05;3.70;;;;;;;31.47;30.99;100710.38;5528456;32;34757;-69
2023/05/27 10:51:53;;;;;;;9.55;3.65;;;;;;;34.03;27.73;100716.31;5528277;32;35333;-71
2023/05/27 10:55:04;;;;;;;10.60;3.65;;;;;;;34.28;27.22;100700.25;5515507;32;34623;-69
2023/05/27 10:58:13;;;;;;;7.57;3.67;;;;;;;34.01;27.40;100704.81;5527548;32;35020;-71
2023/05/27 11:01:24;;;;;;;8.30;3.90;;;;;;;29.26;33.64;100705.09;5528246;32;34028;-69
2023/05/27 11:04:37;;;;;;;9.07;4.00;;;;;;;26.95;38.17;100699.72;5528247;32;34069;-71
2023/05/27 11:07:42;;;;;;;9.10;4.25;;;;;;;25.87;38.92;100702.09;5528242;32;33883;-69
2023/05/27 11:10:47;;;;;;;9.50;3.97;;;;;;;26.21;39.18;100689.03;5528217;32;34194;-70
2023/05/27 11:13:54;;;;;;;8.52;4.18;;;;;;;26.78;37.81;100685.47;5543815;32;34145;-69
2023/05/27 11:17:01;;;;;;;9.85;4.55;;;;;;;29.58;34.39;100690.94;5539483;32;33407;-70
2023/05/27 11:20:10;;;;;;;9.70;4.22;;;;;;;29.35;33.50;100694.41;5533881;32;34093;-68
2023/05/27 11:23:15;;;;;;;7.93;4.32;;;;;;;27.49;36.81;100697.41;5535215;32;34915;-68
2023/05/27 11:26:23;;;;;;;8.63;4.28;;;;;;;27.29;37.64;100691.91;5537788;32;34562;-70
2023/05/27 11:29:31;;;;;;;9.27;4.00;;;;;;;26.59;38.68;100682.41;5527702;32;34870;-69
2023/05/27 11:32:43;;;;;;;10.02;4.57;;;;;;;25.88;40.24;100690.16;5529067;32;34109;-68
2023/05/27 11:36:03;;;;;;;7.50;4.35;;;;;;;27.09;38.89;100687.22;5528165;32;34743;-68
2023/05/27 11:39:16;;;;;;;8.43;4.07;;;;;;;29.75;34.39;100688.63;5527987;32;35132;-70
2023/05/27 11:42:24;;;;;;;8.18;4.35;;;;;;;31.66;30.52;100691.19;5528200;32;34206;-69
2023/05/27 11:45:37;;;;;;;12.70;4.18;;;;;;;31.32;32.60;100688.69;5528025;32;34160;-70
2023/05/27 11:48:42;;;;;;;8.00;4.28;;;;;;;30.49;32.81;100681.88;5527874;32;34125;-70
2023/05/27 11:51:49;;;;;;;10.70;3.90;;;;;;;30.35;32.10;100685.56;5527670;32;34026;-70
2023/05/27 11:54:55;;;;;;;12.00;4.03;;;;;;;31.79;29.82;100693.16;5527619;32;33822;-69
2023/05/27 11:58:03;;;;;;;10.27;4.15;;;;;;;31.35;31.98;100677.94;5531859;32;34157;-70
2023/05/27 12:01:07;;;;;;;10.00;3.85;;;;;;;34.02;28.26;100678.91;5542467;32;34560;-71
2023/05/27 12:04:14;;;;;;;8.70;4.07;;;;;;;36.39;24.63;100686.31;5547021;32;34725;-70
2023/05/27 12:07:21;;;;;;;6.87;3.60;;;;;;;34.31;26.05;100672.09;5547215;32;33902;-69
2023/05/27 12:10:27;;;;;;;11.93;4.22;;;;;;;35.60;25.85;100670.28;5546876;32;34494;-69
2023/05/27 12:13:33;;;;;;;7.20;3.70;;;;;;;32.81;27.82;100673.59;5546885;32;35577;-68
2023/05/27 12:16:43;;;;;;;10.07;4.40;;;;;;;32.70;27.85;100670.25;5547221;32;34172;-69
2023/05/27 12:19:49;;;;;;;6.78;3.83;;;;;;;33.18;27.36;100667.81;5546747;32;33905;-70
2023/05/27 12:22:59;;;;;;;10.30;4.20;;;;;;;34.18;26.79;100657.28;5546530;32;34044;-69
2023/05/27 12:26:05;;;;;;;6.80;4.20;;;;;;;33.17;27.22;100659.88;5546753;32;34251;-70
2023/05/27 12:29:12;;;;;;;7.30;3.80;;;;;;;31.89;29.35;100649.06;5547039;32;34680;-70
2023/05/27 12:32:20;;;;;;;5.57;3.60;;;;;;;31.75;29.66;100643.56;5548306;32;34615;-70
2023/05/27 12:35:30;;;;;;;14.23;3.78;;;;;;;35.66;26.29;100649.69;5548961;32;34063;-70
2023/05/27 12:38:35;;;;;;;9.80;4.03;;;;;;;35.72;25.40;100653.06;5549082;32;34122;-70
2023/05/27 12:41:43;;;;;;;7.37;3.78;;;;;;;36.54;24.73;100646.22;5549129;32;34192;-71
2023/05/27 12:44:49;;;;;;;7.93;3.75;;;;;;;35.20;25.43;100641.28;5549189;32;33895;-68
2023/05/27 12:47:56;;;;;;;10.30;4.12;;;;;;;28.45;35.94;100639.97;5547937;32;35301;-68
2023/05/27 12:51:02;;;;;;;10.15;4.43;;;;;;;26.67;39.79;100638.38;5549123;32;34183;-70
2023/05/27 12:54:09;;;;;;;8.48;4.47;;;;;;;25.92;41.93;100639.63;5547862;32;34183;-71
2023/05/27 12:57:13;;;;;;;6.82;4.25;;;;;;;26.17;41.80;100635.41;5548563;32;33901;-68
2023/05/27 13:00:21;;;;;;;10.48;4.60;;;;;;;25.53;44.26;100641.75;5548812;32;34223;-69
2023/05/27 13:03:26;;;;;;;14.90;5.15;;;;;;;25.55;44.94;100621.69;5548915;32;34115;-69
2023/05/27 13:06:32;;;;;;;9.23;5.07;;;;;;;25.22;45.27;100629.00;5548825;32;34075;-71
2023/05/27 13:09:39;;;;;;;9.20;4.40;;;;;;;25.41;44.08;100629.44;5537970;32;34011;-69
2023/05/27 13:12:46;;;;;;;7.65;4.65;;;;;;;26.50;42.70;100621.44;5529291;32;34920;-70
2023/05/27 13:15:51;;;;;;;11.18;5.12;;;;;;;27.88;39.74;100612.31;5529360;32;35066;-69
2023/05/27 13:18:56;;;;;;;16.12;5.45;;;;;;;26.61;42.18;100619.56;5535162;32;34042;-71
2023/05/27 13:22:03;;;;;;;10.63;5.75;;;;;;;26.14;43.26;100620.41;5529912;32;34346;-69
2023/05/27 13:25:11;;;;;;;9.73;5.47;;;;;;;25.71;44.58;100618.81;5540798;32;33877;-69
2023/05/27 13:28:16;;;;;;;8.20;5.12;;;;;;;25.93;45.25;100624.13;5529138;32;34753;-68
2023/05/27 13:31:22;;;;;;;8.50;5.05;;;;;;;25.19;47.71;100610.50;5529401;32;34056;-70
2023/05/27 13:34:28;;;;;;;11.45;5.20;;;;;;;24.97;47.55;100607.88;5529135;32;34690;-72
2023/05/27 13:37:37;;;;;;;9.00;5.82;;;;;;;26.47;44.47;100608.38;5529313;32;33817;-70
2023/05/27 13:40:44;;;;;;;10.15;5.57;;;;;;;28.23;40.56;100614.13;5529090;32;34144;-69
2023/05/27 13:43:51;;;;;;;8.07;5.22;;;;;;;29.55;38.49;100604.03;5528064;32;33955;-71
2023/05/27 13:47:00;;;;;;;9.63;5.07;;;;;;;30.01;36.61;100603.59;5530211;32;34769;-70
2023/05/27 13:50:06;;;;;;;6.75;4.90;;;;;;;30.62;34.44;100595.44;5528461;32;34066;-70
2023/05/27 13:53:12;;;;;;;9.90;5.10;;;;;;;31.84;32.60;100597.84;5527164;32;34655;-71
2023/05/27 13:56:19;;;;;;;7.53;4.45;;;;;;;33.70;30.34;100582.06;5525906;32;33836;-70
2023/05/27 13:59:24;;;;;;;7.97;4.40;;;;;;;34.34;29.37;100592.38;5528420;32;33958;-69
2023/05/27 14:02:33;;;;;;;11.77;4.30;;;;;;;30.38;34.26;100575.47;5536790;32;34272;-69
2023/05/27 14:05:40;;;;;;;7.55;4.80;;;;;;;28.12;38.43;100577.91;5528205;32;34869;-69
2023/05/27 14:08:45;;;;;;;6.35;4.60;;;;;;;25.51;43.52;100570.53;5528154;32;34038;-70
2023/05/27 14:11:53;;;;;;;13.10;5.20;;;;;;;25.10;44.21;100558.56;5543186;32;34193;-70
2023/05/27 14:14:58;;;;;;;10.07;5.18;;;;;;;24.74;46.27;100563.91;5548033;32;34226;-70
2023/05/27 14:18:05;;;;;;;11.12;5.25;;;;;;;25.20;46.74;100548.87;5548222;32;34168;-69
2023/05/27 14:21:12;;;;;;;9.40;5.12;;;;;;;24.24;48.74;100549.56;5548169;32;33926;-69
2023/05/27 14:24:20;;;;;;;9.15;5.20;;;;;;;23.91;48.63;100546.94;5539317;32;34069;-70
2023/05/27 14:27:27;;;;;;;12.55;5.62;;;;;;;23.72;49.57;100546.38;5528685;32;34699;-69
2023/05/27 14:30:37;;;;;;;11.52;5.20;;;;;;;23.70;50.29;100545.00;5527668;32;34144;-70